createdAt,value
2018-04-02T00:00:16.591Z,4.82
2018-04-02T00:03:07.566Z,4.79
2018-04-02T00:05:57.717Z,4.79
2018-04-02T00:08:48.274Z,4.81
2018-04-02T00:11:38.354Z,4.83
2018-04-02T00:14:28.754Z,4.85
2018-04-02T00:17:19.281Z,4.90
2018-04-02T00:20:09.842Z,4.97
2018-04-02T00:23:00.526Z,4.99
2018-04-02T00:25:51.101Z,5.02
2018-04-02T00:28:41.417Z,5.03
2018-04-02T00:31:31.836Z,5.05
2018-04-02T00:34:22.256Z,5.06
2018-04-02T00:37:13.917Z,5.08
2018-04-02T00:40:04.646Z,5.07
2018-04-02T00:42:55.274Z,5.09
2018-04-02T00:45:45.485Z,5.08
2018-04-02T00:48:35.754Z,5.09
2018-04-02T00:51:26.306Z,5.08
2018-04-02T00:54:16.861Z,5.07
2018-04-02T00:57:07.520Z,5.07
2018-04-02T00:59:58.026Z,5.07
2018-04-02T01:02:48.460Z,5.06
2018-04-02T01:05:38.550Z,5.05
2018-04-02T01:08:28.730Z,5.05
2018-04-02T01:11:20.315Z,5.04
2018-04-02T01:14:10.868Z,5.04
2018-04-02T01:17:01.502Z,5.05
2018-04-02T01:19:52.037Z,5.06
2018-04-02T01:22:43.562Z,5.06
2018-04-02T01:25:34.178Z,5.09
2018-04-02T01:28:24.712Z,5.09
2018-04-02T01:31:14.919Z,5.09
2018-04-02T01:34:05.252Z,5.11
2018-04-02T01:36:55.632Z,5.11
2018-04-02T01:39:46.204Z,5.09
2018-04-02T01:42:36.764Z,5.05
2018-04-02T01:45:27.344Z,5.02
2018-04-02T01:48:17.885Z,4.99
2018-04-02T01:51:08.481Z,4.98
2018-04-02T01:53:58.936Z,4.95
2018-04-02T01:56:48.979Z,4.91
2018-04-02T01:59:39.512Z,4.86
2018-04-02T02:02:30.027Z,4.83
2018-04-02T02:05:20.342Z,4.78
2018-04-02T02:08:11.912Z,4.70
2018-04-02T02:11:02.407Z,4.64
2018-04-02T02:13:52.921Z,4.59
2018-04-02T02:16:43.084Z,4.53
2018-04-02T02:19:32.732Z,4.49
2018-04-02T02:22:23.261Z,4.45
2018-04-02T02:25:13.792Z,4.40
2018-04-02T02:28:04.422Z,4.36
2018-04-02T02:30:57.053Z,4.33
2018-04-02T02:33:47.690Z,4.30
2018-04-02T02:36:38.198Z,4.26
2018-04-02T02:39:28.757Z,4.22
2018-04-02T02:42:19.346Z,4.19
2018-04-02T02:45:10.023Z,4.16
2018-04-02T02:48:00.485Z,4.10
2018-04-02T02:50:51.089Z,4.06
2018-04-02T02:53:41.636Z,4.03
2018-04-02T02:56:32.287Z,4.02
2018-04-02T02:59:22.667Z,3.97
2018-04-02T03:02:13.246Z,3.92
2018-04-02T03:05:03.748Z,3.90
2018-04-02T03:07:54.381Z,3.87
2018-04-02T03:10:44.865Z,3.83
2018-04-02T03:13:37.412Z,3.79
2018-04-02T03:16:27.788Z,3.77
2018-04-02T03:19:18.404Z,3.76
2018-04-02T03:22:08.470Z,3.75
2018-04-02T03:24:58.682Z,3.72
2018-04-02T03:27:49.096Z,3.68
2018-04-02T03:30:39.663Z,3.67
2018-04-02T03:33:30.315Z,3.64
2018-04-02T03:36:20.870Z,3.60
2018-04-02T03:39:11.312Z,3.59
2018-04-02T03:42:01.856Z,3.56
2018-04-02T03:44:52.258Z,3.52
2018-04-02T03:47:42.814Z,3.49
2018-04-02T03:50:33.265Z,3.45
2018-04-02T03:53:23.750Z,3.44
2018-04-02T03:56:15.226Z,3.43
2018-04-02T03:59:05.756Z,3.42
2018-04-02T04:01:56.274Z,3.40
2018-04-02T04:04:46.834Z,3.37
2018-04-02T04:07:37.260Z,3.35
2018-04-02T04:10:27.850Z,3.32
2018-04-02T04:13:18.367Z,3.31
2018-04-02T04:16:08.928Z,3.30
2018-04-02T04:18:59.290Z,3.29
2018-04-02T04:21:49.718Z,3.30
2018-04-02T04:24:40.258Z,3.28
2018-04-02T04:27:30.668Z,3.29
2018-04-02T04:30:21.280Z,3.30
2018-04-02T04:33:11.768Z,3.30
2018-04-02T04:36:02.249Z,3.27
2018-04-02T04:38:52.874Z,3.28
2018-04-02T04:41:43.220Z,3.27
2018-04-02T04:44:33.842Z,3.27
2018-04-02T04:47:23.992Z,3.26
2018-04-02T04:50:14.606Z,3.26
2018-04-02T04:53:05.000Z,3.25
2018-04-02T04:55:55.066Z,3.24
2018-04-02T04:58:45.693Z,3.22
2018-04-02T05:01:37.283Z,3.21
2018-04-02T05:04:27.830Z,3.19
2018-04-02T05:07:18.473Z,3.18
2018-04-02T05:10:09.187Z,3.14
2018-04-02T05:12:59.652Z,3.09
2018-04-02T05:15:50.113Z,3.09
2018-04-02T05:18:40.766Z,3.11
2018-04-02T05:21:31.359Z,3.11
2018-04-02T05:24:21.824Z,3.05
2018-04-02T05:27:13.482Z,2.96
2018-04-02T05:30:03.650Z,2.95
2018-04-02T05:32:54.253Z,2.96
2018-04-02T05:35:44.762Z,2.96
2018-04-02T05:38:35.444Z,2.92
2018-04-02T05:41:25.987Z,2.92
2018-04-02T05:44:16.074Z,2.91
2018-04-02T05:47:06.586Z,2.92
2018-04-02T05:49:57.104Z,2.96
2018-04-02T05:52:46.900Z,3.04
2018-04-02T05:55:37.440Z,3.11
2018-04-02T05:58:27.956Z,3.18
2018-04-02T06:01:18.547Z,3.26
2018-04-02T06:04:09.178Z,3.33
2018-04-02T06:06:59.767Z,3.34
2018-04-02T06:09:49.478Z,3.42
2018-04-02T06:12:40.039Z,3.46
2018-04-02T06:15:31.541Z,3.50
2018-04-02T06:18:21.910Z,3.55
2018-04-02T06:21:12.545Z,3.58
2018-04-02T06:24:03.094Z,3.63
2018-04-02T06:26:53.678Z,3.63
2018-04-02T06:29:44.332Z,3.74
2018-04-02T06:32:35.485Z,3.83
2018-04-02T06:35:25.754Z,3.88
2018-04-02T06:38:16.271Z,3.93
2018-04-02T06:41:06.658Z,4.01
2018-04-02T06:43:57.950Z,4.07
2018-04-02T06:46:48.503Z,4.13
2018-04-02T06:49:38.652Z,4.21
2018-04-02T06:52:29.186Z,4.28
2018-04-02T06:55:20.798Z,4.36
2018-04-02T06:58:11.418Z,4.39
2018-04-02T07:01:02.098Z,4.45
2018-04-02T07:03:52.436Z,4.48
2018-04-02T07:06:43.080Z,4.57
2018-04-02T07:09:33.325Z,4.62
2018-04-02T07:12:23.878Z,4.71
2018-04-02T07:15:14.457Z,4.79
2018-04-02T07:18:04.839Z,4.89
2018-04-02T07:20:55.391Z,4.98
2018-04-02T07:23:45.951Z,5.06
2018-04-02T07:26:36.549Z,5.13
2018-04-02T07:29:27.105Z,5.21
2018-04-02T07:32:17.591Z,5.30
2018-04-02T07:35:08.142Z,5.38
2018-04-02T07:37:59.440Z,5.47
2018-04-02T07:40:49.973Z,5.52
2018-04-02T07:43:40.832Z,5.59
2018-04-02T07:46:31.735Z,5.67
2018-04-02T07:49:22.276Z,5.79
2018-04-02T07:52:12.752Z,5.87
2018-04-02T07:55:03.318Z,6.01
2018-04-02T07:57:54.019Z,6.08
2018-04-02T08:00:44.562Z,6.14
2018-04-02T08:03:35.117Z,6.26
2018-04-02T08:06:25.813Z,6.46
2018-04-02T08:09:16.334Z,6.54
2018-04-02T08:12:06.893Z,6.60
2018-04-02T08:14:57.477Z,6.67
2018-04-02T08:17:47.941Z,6.83
2018-04-02T08:20:38.398Z,6.92
2018-04-02T08:23:29.076Z,6.99
2018-04-02T08:26:19.583Z,7.03
2018-04-02T08:29:11.126Z,7.08
2018-04-02T08:32:01.676Z,7.19
2018-04-02T08:34:52.319Z,7.37
2018-04-02T08:37:42.882Z,7.50
2018-04-02T08:40:33.385Z,7.60
2018-04-02T08:43:23.971Z,7.65
2018-04-02T08:46:14.532Z,7.77
2018-04-02T08:49:04.904Z,7.89
2018-04-02T08:51:55.496Z,7.94
2018-04-02T08:54:45.949Z,7.92
2018-04-02T08:57:35.798Z,7.93
2018-04-02T09:00:27.364Z,8.03
2018-04-02T09:03:17.963Z,8.18
2018-04-02T09:06:08.496Z,8.28
2018-04-02T09:08:59.298Z,8.40
2018-04-02T09:11:49.697Z,8.50
2018-04-02T09:14:41.200Z,8.56
2018-04-02T09:17:31.760Z,8.64
2018-04-02T09:20:22.218Z,8.69
2018-04-02T09:23:12.786Z,8.81
2018-04-02T09:26:03.426Z,9.00
2018-04-02T09:28:54.048Z,9.05
2018-04-02T09:31:44.695Z,9.13
2018-04-02T09:34:35.326Z,9.28
2018-04-02T09:37:25.842Z,9.30
2018-04-02T09:40:16.255Z,9.33
2018-04-02T09:43:06.868Z,9.39
2018-04-02T09:45:57.514Z,9.47
2018-04-02T09:48:48.113Z,9.31
2018-04-02T09:51:38.695Z,9.27
2018-04-02T09:54:29.830Z,9.35
2018-04-02T09:57:20.413Z,9.37
2018-04-02T10:00:10.917Z,9.41
2018-04-02T10:03:02.483Z,9.48
2018-04-02T10:05:54.145Z,9.68
2018-04-02T10:08:44.678Z,9.78
2018-04-02T10:11:35.380Z,9.80
2018-04-02T10:14:25.284Z,9.83
2018-04-02T10:17:15.401Z,9.93
2018-04-02T10:20:05.428Z,9.99
2018-04-02T10:22:55.872Z,10.07
2018-04-02T10:25:46.014Z,10.11
2018-04-02T10:28:36.554Z,10.19
2018-04-02T10:31:27.221Z,10.15
2018-04-02T10:34:17.863Z,10.23
2018-04-02T10:37:07.960Z,10.14
2018-04-02T10:39:58.191Z,10.24
2018-04-02T10:42:48.368Z,10.27
2018-04-02T10:45:38.909Z,10.35
2018-04-02T10:48:29.020Z,10.37
2018-04-02T10:51:20.734Z,10.42
2018-04-02T10:54:11.319Z,10.54
2018-04-02T10:57:02.012Z,10.69
2018-04-02T10:59:51.983Z,10.75
2018-04-02T11:02:43.555Z,10.75
2018-04-02T11:05:34.077Z,10.82
2018-04-02T11:08:24.628Z,11.01
2018-04-02T11:11:15.174Z,11.04
2018-04-02T11:14:06.826Z,11.05
2018-04-02T11:16:57.007Z,11.06
2018-04-02T11:19:47.622Z,11.07
2018-04-02T11:22:38.373Z,11.06
2018-04-02T11:25:29.614Z,11.21
2018-04-02T11:28:20.128Z,11.33
2018-04-02T11:31:10.710Z,11.33
2018-04-02T11:34:01.295Z,11.34
2018-04-02T11:36:51.882Z,11.42
2018-04-02T11:39:43.424Z,11.55
2018-04-02T11:42:34.023Z,11.58
2018-04-02T11:45:24.012Z,11.60
2018-04-02T11:48:14.439Z,11.60
2018-04-02T11:51:04.917Z,11.75
2018-04-02T11:53:55.038Z,11.81
2018-04-02T11:56:45.599Z,11.82
2018-04-02T11:59:36.145Z,11.76
2018-04-02T12:02:26.699Z,11.88
2018-04-02T12:05:17.339Z,11.87
2018-04-02T12:08:07.910Z,11.89
2018-04-02T12:10:58.518Z,12.02
2018-04-02T12:13:48.750Z,12.12
2018-04-02T12:16:41.292Z,12.31
2018-04-02T12:19:31.944Z,12.26
2018-04-02T12:22:22.142Z,12.27
2018-04-02T12:25:12.722Z,12.30
2018-04-02T12:28:03.341Z,12.41
2018-04-02T12:30:53.856Z,12.56
2018-04-02T12:33:44.418Z,12.61
2018-04-02T12:36:35.012Z,12.66
2018-04-02T12:39:25.622Z,12.72
2018-04-02T12:42:16.081Z,12.70
2018-04-02T12:45:06.619Z,12.68
2018-04-02T12:47:56.873Z,12.71
2018-04-02T12:50:47.914Z,12.76
2018-04-02T12:53:38.066Z,12.74
2018-04-02T12:56:28.602Z,12.74
2018-04-02T12:59:19.159Z,12.96
2018-04-02T13:02:09.580Z,12.97
2018-04-02T13:05:00.137Z,12.86
2018-04-02T13:07:50.699Z,12.90
2018-04-02T13:10:41.366Z,13.08
2018-04-02T13:13:31.915Z,13.23
2018-04-02T13:16:22.540Z,13.41
2018-04-02T13:19:13.226Z,13.43
2018-04-02T13:22:03.457Z,13.36
2018-04-02T13:24:54.019Z,13.35
2018-04-02T13:27:44.599Z,13.49
2018-04-02T13:30:34.881Z,13.60
2018-04-02T13:33:25.062Z,13.75
2018-04-02T13:36:15.763Z,13.88
2018-04-02T13:39:06.339Z,14.13
2018-04-02T13:41:56.775Z,14.26
2018-04-02T13:44:47.436Z,14.31
2018-04-02T13:47:37.806Z,14.15
2018-04-02T13:50:29.679Z,14.07
2018-04-02T13:53:20.139Z,14.05
2018-04-02T13:56:10.958Z,14.17
2018-04-02T13:59:01.823Z,14.21
2018-04-02T14:01:52.429Z,14.52
2018-04-02T14:04:42.929Z,14.80
2018-04-02T14:07:33.509Z,14.93
2018-04-02T14:10:24.022Z,15.01
2018-04-02T14:13:14.203Z,15.25
2018-04-02T14:16:04.793Z,15.40
2018-04-02T14:18:55.451Z,15.18
2018-04-02T14:21:46.024Z,15.30
2018-04-02T14:27:30.944Z,15.68
2018-04-02T14:30:21.156Z,15.79
2018-04-02T14:33:12.693Z,15.89
2018-04-02T14:36:02.916Z,16.12
2018-04-02T14:38:53.470Z,16.41
2018-04-02T14:41:44.110Z,16.39
2018-04-02T14:44:34.687Z,16.50
2018-04-02T14:47:25.295Z,16.88
2018-04-02T14:50:15.808Z,16.81
2018-04-02T14:53:06.284Z,16.74
2018-04-02T14:55:55.905Z,17.22
2018-04-02T14:58:46.513Z,17.74
2018-04-02T15:01:37.132Z,17.86
2018-04-02T15:04:27.701Z,17.92
2018-04-02T15:07:18.253Z,17.81
2018-04-02T15:10:08.797Z,17.55
2018-04-02T15:12:58.909Z,17.65
2018-04-02T15:15:49.513Z,17.70
2018-04-02T15:18:40.140Z,17.83
2018-04-02T15:21:30.699Z,17.92
2018-04-02T15:24:22.355Z,17.99
2018-04-02T15:27:12.884Z,17.60
2018-04-02T15:30:03.375Z,17.89
2018-04-02T15:32:57.786Z,18.00
2018-04-02T15:35:48.280Z,17.86
2018-04-02T15:38:38.410Z,17.83
2018-04-02T15:41:28.580Z,17.76
2018-04-02T15:44:19.138Z,17.20
2018-04-02T15:47:09.705Z,16.96
2018-04-02T15:50:00.249Z,16.93
2018-04-02T15:52:50.893Z,16.87
2018-04-02T15:55:41.145Z,16.68
2018-04-02T15:58:33.720Z,16.59
2018-04-02T16:01:24.321Z,16.29
2018-04-02T16:04:14.863Z,16.03
2018-04-02T16:07:05.090Z,15.85
2018-04-02T16:09:55.659Z,15.77
2018-04-02T16:12:47.348Z,15.62
2018-04-02T16:15:38.037Z,15.48
2018-04-02T16:18:28.629Z,15.35
2018-04-02T16:21:19.133Z,15.29
2018-04-02T16:24:09.634Z,15.10
2018-04-02T16:27:00.168Z,14.90
2018-04-02T16:29:50.824Z,14.83
2018-04-02T16:32:41.428Z,14.81
2018-04-02T16:35:31.964Z,14.70
2018-04-02T16:38:22.530Z,14.66
2018-04-02T16:41:13.236Z,14.69
2018-04-02T16:44:03.896Z,14.56
2018-04-02T16:46:54.466Z,14.47
2018-04-02T16:49:45.027Z,14.40
2018-04-02T16:52:35.596Z,14.35
2018-04-02T16:55:26.110Z,14.25
2018-04-02T16:58:16.604Z,14.22
2018-04-02T17:01:08.131Z,14.17
2018-04-02T17:03:59.690Z,14.09
2018-04-02T17:06:50.217Z,13.97
2018-04-02T17:09:40.853Z,13.85
2018-04-02T17:12:32.415Z,13.78
2018-04-02T17:15:22.941Z,13.69
2018-04-02T17:18:13.537Z,13.64
2018-04-02T17:21:04.228Z,13.54
2018-04-02T17:24:00.877Z,13.46
2018-04-02T17:26:51.460Z,13.39
2018-04-02T17:29:41.727Z,13.28
2018-04-02T17:32:32.241Z,13.22
2018-04-02T17:35:22.954Z,13.13
2018-04-02T17:38:12.670Z,13.02
2018-04-02T17:41:03.232Z,12.96
2018-04-02T17:43:53.896Z,12.84
2018-04-02T17:46:44.605Z,12.76
2018-04-02T17:49:34.311Z,12.66
2018-04-02T17:52:24.786Z,12.56
2018-04-02T17:55:15.334Z,12.48
2018-04-02T17:58:06.161Z,12.44
2018-04-02T18:00:56.735Z,12.39
2018-04-02T18:03:47.298Z,12.34
2018-04-02T18:06:38.958Z,12.24
2018-04-02T18:09:29.504Z,12.17
2018-04-02T18:12:21.837Z,12.10
2018-04-02T18:15:12.431Z,12.01
2018-04-02T18:18:03.068Z,11.95
2018-04-02T18:20:53.685Z,11.88
2018-04-02T18:23:43.820Z,11.82
2018-04-02T18:26:34.294Z,11.76
2018-04-02T18:29:24.908Z,11.70
2018-04-02T18:32:15.435Z,11.65
2018-04-02T18:35:05.886Z,11.61
2018-04-02T18:37:56.725Z,11.58
2018-04-02T18:40:47.325Z,11.54
2018-04-02T18:43:37.968Z,11.51
2018-04-02T18:46:28.510Z,11.47
2018-04-02T18:49:20.132Z,11.45
2018-04-02T18:52:11.240Z,11.42
2018-04-02T18:55:01.780Z,11.41
2018-04-02T18:57:52.389Z,11.38
2018-04-02T19:00:42.827Z,11.36
2018-04-02T19:03:33.449Z,11.33
2018-04-02T19:06:24.004Z,11.30
2018-04-02T19:09:14.600Z,11.26
2018-04-02T19:12:07.262Z,11.26
2018-04-02T19:14:58.140Z,11.24
2018-04-02T19:17:48.744Z,11.22
2018-04-02T19:20:38.901Z,11.21
2018-04-02T19:23:29.531Z,11.19
2018-04-02T19:26:20.124Z,11.15
2018-04-02T19:29:10.258Z,11.11
2018-04-02T19:32:01.874Z,11.08
2018-04-02T19:34:52.506Z,11.05
2018-04-02T19:37:42.712Z,11.03
2018-04-02T19:40:33.348Z,11.01
2018-04-02T19:43:23.932Z,10.98
2018-04-02T19:46:14.524Z,10.95
2018-04-02T19:49:04.940Z,10.94
2018-04-02T19:51:54.750Z,10.91
2018-04-02T19:54:45.347Z,10.88
2018-04-02T19:57:36.015Z,10.84
2018-04-02T20:00:26.753Z,10.82
2018-04-02T20:03:17.297Z,10.81
2018-04-02T20:06:07.806Z,10.79
2018-04-02T20:08:58.396Z,10.75
2018-04-02T20:11:48.923Z,10.72
2018-04-02T20:14:39.479Z,10.69
2018-04-02T20:17:31.141Z,10.65
2018-04-02T20:20:21.664Z,10.62
2018-04-02T20:23:12.167Z,10.60
2018-04-02T20:26:02.711Z,10.59
2018-04-02T20:28:53.132Z,10.59
2018-04-02T20:31:43.696Z,10.58
2018-04-02T20:34:34.426Z,10.57
2018-04-02T20:37:25.968Z,10.56
2018-04-02T20:40:16.428Z,10.55
2018-04-02T20:43:06.779Z,10.55
2018-04-02T20:45:57.364Z,10.56
2018-04-02T20:48:47.948Z,10.58
2018-04-02T20:51:38.558Z,10.61
2018-04-02T20:54:29.035Z,10.65
2018-04-02T20:57:19.676Z,10.70
2018-04-02T21:00:10.012Z,10.75
2018-04-02T21:03:00.594Z,10.77
2018-04-02T21:05:51.098Z,10.75
2018-04-02T21:08:41.062Z,10.71
2018-04-02T21:11:32.596Z,10.67
2018-04-02T21:14:23.116Z,10.63
2018-04-02T21:17:13.753Z,10.63
2018-04-02T21:20:04.326Z,10.62
2018-04-02T21:22:54.439Z,10.62
2018-04-02T21:25:46.773Z,10.63
2018-04-02T21:28:37.292Z,10.63
2018-04-02T21:31:27.449Z,10.62
2018-04-02T21:34:17.850Z,10.61
2018-04-02T21:37:07.641Z,10.60
2018-04-02T21:39:58.207Z,10.59
2018-04-02T21:42:48.850Z,10.58
2018-04-02T21:45:40.467Z,10.59
2018-04-02T21:48:30.947Z,10.57
2018-04-02T21:51:21.411Z,10.54
2018-04-02T21:54:11.465Z,10.53
2018-04-02T21:57:02.039Z,10.50
2018-04-02T21:59:52.584Z,10.46
2018-04-02T22:02:42.666Z,10.45
2018-04-02T22:05:33.125Z,10.41
2018-04-02T22:08:27.453Z,10.38
2018-04-02T22:11:17.996Z,10.36
2018-04-02T22:14:08.558Z,10.35
2018-04-02T22:16:59.126Z,10.34
2018-04-02T22:19:49.742Z,10.32
2018-04-02T22:22:40.279Z,10.28
2018-04-02T22:25:30.818Z,10.25
2018-04-02T22:28:21.183Z,10.25
2018-04-02T22:31:11.711Z,10.23
2018-04-02T22:34:02.316Z,10.18
2018-04-02T22:36:52.887Z,10.17
2018-04-02T22:39:43.025Z,10.15
2018-04-02T22:42:33.122Z,10.13
2018-04-02T22:45:24.761Z,10.11
2018-04-02T22:48:15.138Z,10.07
2018-04-02T22:51:05.729Z,10.03
2018-04-02T22:53:56.440Z,9.98
2018-04-02T22:56:48.015Z,9.93
2018-04-02T22:59:38.482Z,9.87
2018-04-02T23:02:28.659Z,9.84
2018-04-02T23:05:19.188Z,9.83
2018-04-02T23:08:09.572Z,9.81
2018-04-02T23:10:59.964Z,9.77
2018-04-02T23:13:50.475Z,9.71
2018-04-02T23:16:41.040Z,9.65
2018-04-02T23:19:31.569Z,9.57
2018-04-02T23:22:23.158Z,9.51
2018-04-02T23:25:13.635Z,9.47
2018-04-02T23:28:03.739Z,9.42
2018-04-02T23:30:53.792Z,9.38
2018-04-02T23:33:44.282Z,9.34
2018-04-02T23:36:34.727Z,9.29
2018-04-02T23:39:25.008Z,9.25
2018-04-02T23:42:15.573Z,9.19
2018-04-02T23:45:06.016Z,9.13
2018-04-02T23:47:56.510Z,9.07
2018-04-02T23:50:46.042Z,9.03
2018-04-02T23:53:36.146Z,8.99
2018-04-02T23:56:26.850Z,8.96
2018-04-02T23:59:17.376Z,8.93
